sensor_id;sensor_type;location;lat;lon;timestamp;temperature;humidity
7002;DHT22;3541;53.230;10.518;2024-02-16T00:00:55;11.80;99.90
7002;DHT22;3541;53.230;10.518;2024-02-16T00:03:22;11.80;99.90
7002;DHT22;3541;53.230;10.518;2024-02-16T00:05:49;11.80;99.90
7002;DHT22;3541;53.230;10.518;2024-02-16T00:08:18;11.80;99.90
7002;DHT22;3541;53.230;10.518;2024-02-16T00:10:45;11.70;99.90
7002;DHT22;3541;53.230;10.518;2024-02-16T00:13:12;11.70;99.90
7002;DHT22;3541;53.230;10.518;2024-02-16T00:15:38;11.80;99.90
7002;DHT22;3541;53.230;10.518;2024-02-16T00:18:05;11.70;99.90
7002;DHT22;3541;53.230;10.518;2024-02-16T00:20:32;11.70;99.90
7002;DHT22;3541;53.230;10.518;2024-02-16T00:22:59;11.70;99.90
7002;DHT22;3541;53.230;10.518;2024-02-16T00:25:27;11.70;99.90
7002;DHT22;3541;53.230;10.518;2024-02-16T00:27:54;11.60;99.90
7002;DHT22;3541;53.230;10.518;2024-02-16T00:30:22;11.60;99.90
7002;DHT22;3541;53.230;10.518;2024-02-16T00:32:49;11.70;99.90
7002;DHT22;3541;53.230;10.518;2024-02-16T00:35:15;11.60;99.90
7002;DHT22;3541;53.230;10.518;2024-02-16T00:37:43;11.60;99.90
7002;DHT22;3541;53.230;10.518;2024-02-16T00:40:11;11.60;99.90
7002;DHT22;3541;53.230;10.518;2024-02-16T00:42:39;11.60;99.90
7002;DHT22;3541;53.230;10.518;2024-02-16T00:45:07;11.60;99.90
7002;DHT22;3541;53.230;10.518;2024-02-16T00:47:33;11.60;99.90
7002;DHT22;3541;53.230;10.518;2024-02-16T00:50:00;11.70;99.90
7002;DHT22;3541;53.230;10.518;2024-02-16T00:52:27;11.70;99.90
7002;DHT22;3541;53.230;10.518;2024-02-16T00:54:53;11.70;99.90
7002;DHT22;3541;53.230;10.518;2024-02-16T00:57:20;11.70;99.90
7002;DHT22;3541;53.230;10.518;2024-02-16T00:59:48;11.70;99.90
7002;DHT22;3541;53.230;10.518;2024-02-16T01:02:14;11.60;99.90
7002;DHT22;3541;53.230;10.518;2024-02-16T01:04:42;11.70;99.90
7002;DHT22;3541;53.230;10.518;2024-02-16T01:07:08;11.70;99.90
7002;DHT22;3541;53.230;10.518;2024-02-16T01:09:35;11.60;99.90
7002;DHT22;3541;53.230;10.518;2024-02-16T01:12:02;11.60;99.90
7002;DHT22;3541;53.230;10.518;2024-02-16T01:14:28;11.60;99.90
7002;DHT22;3541;53.230;10.518;2024-02-16T01:16:56;11.60;99.90
7002;DHT22;3541;53.230;10.518;2024-02-16T01:19:23;11.50;99.90
7002;DHT22;3541;53.230;10.518;2024-02-16T01:21:49;11.60;99.90
7002;DHT22;3541;53.230;10.518;2024-02-16T01:24:18;11.60;99.90
7002;DHT22;3541;53.230;10.518;2024-02-16T01:26:45;11.60;99.90
7002;DHT22;3541;53.230;10.518;2024-02-16T01:29:12;11.60;99.90
7002;DHT22;3541;53.230;10.518;2024-02-16T01:31:38;11.60;99.90
7002;DHT22;3541;53.230;10.518;2024-02-16T01:34:06;11.60;99.90
7002;DHT22;3541;53.230;10.518;2024-02-16T01:36:32;11.60;99.90
7002;DHT22;3541;53.230;10.518;2024-02-16T01:38:59;11.50;99.90
7002;DHT22;3541;53.230;10.518;2024-02-16T01:41:26;11.60;99.90
7002;DHT22;3541;53.230;10.518;2024-02-16T01:43:52;11.60;99.90
7002;DHT22;3541;53.230;10.518;2024-02-16T01:46:20;11.50;99.90
7002;DHT22;3541;53.230;10.518;2024-02-16T01:48:48;11.50;99.90
7002;DHT22;3541;53.230;10.518;2024-02-16T01:51:17;11.50;99.90
7002;DHT22;3541;53.230;10.518;2024-02-16T01:53:43;11.50;99.90
7002;DHT22;3541;53.230;10.518;2024-02-16T01:56:11;11.50;99.90
7002;DHT22;3541;53.230;10.518;2024-02-16T01:58:38;11.50;99.90
7002;DHT22;3541;53.230;10.518;2024-02-16T02:01:05;11.50;99.90
7002;DHT22;3541;53.230;10.518;2024-02-16T02:03:31;11.40;99.90
7002;DHT22;3541;53.230;10.518;2024-02-16T02:05:58;11.40;99.90
7002;DHT22;3541;53.230;10.518;2024-02-16T02:08:26;11.40;99.90
7002;DHT22;3541;53.230;10.518;2024-02-16T02:10:53;11.40;99.90
7002;DHT22;3541;53.230;10.518;2024-02-16T02:13:19;11.40;99.90
7002;DHT22;3541;53.230;10.518;2024-02-16T02:15:47;11.40;99.90
7002;DHT22;3541;53.230;10.518;2024-02-16T02:18:14;11.40;99.90
7002;DHT22;3541;53.230;10.518;2024-02-16T02:20:40;11.40;99.90
7002;DHT22;3541;53.230;10.518;2024-02-16T02:23:09;11.50;99.90
7002;DHT22;3541;53.230;10.518;2024-02-16T02:25:36;11.40;99.90
7002;DHT22;3541;53.230;10.518;2024-02-16T02:28:02;11.40;99.90
7002;DHT22;3541;53.230;10.518;2024-02-16T02:30:29;11.40;99.90
7002;DHT22;3541;53.230;10.518;2024-02-16T02:32:56;11.40;99.90
7002;DHT22;3541;53.230;10.518;2024-02-16T02:35:22;11.40;99.90
7002;DHT22;3541;53.230;10.518;2024-02-16T02:37:49;11.40;99.90
7002;DHT22;3541;53.230;10.518;2024-02-16T02:40:17;11.40;99.90
7002;DHT22;3541;53.230;10.518;2024-02-16T02:42:44;11.40;99.90
7002;DHT22;3541;53.230;10.518;2024-02-16T02:45:10;11.40;99.90
7002;DHT22;3541;53.230;10.518;2024-02-16T02:47:37;11.40;99.90
7002;DHT22;3541;53.230;10.518;2024-02-16T02:50:05;11.40;99.90
7002;DHT22;3541;53.230;10.518;2024-02-16T02:52:32;11.40;99.90
7002;DHT22;3541;53.230;10.518;2024-02-16T02:54:59;11.30;99.90
7002;DHT22;3541;53.230;10.518;2024-02-16T02:57:26;11.30;99.90
7002;DHT22;3541;53.230;10.518;2024-02-16T02:59:53;11.30;99.90
7002;DHT22;3541;53.230;10.518;2024-02-16T03:02:28;11.30;99.90
7002;DHT22;3541;53.230;10.518;2024-02-16T03:04:55;11.40;99.90
7002;DHT22;3541;53.230;10.518;2024-02-16T03:07:21;11.30;99.90
7002;DHT22;3541;53.230;10.518;2024-02-16T03:09:48;11.30;99.90
7002;DHT22;3541;53.230;10.518;2024-02-16T03:12:14;11.30;99.90
7002;DHT22;3541;53.230;10.518;2024-02-16T03:14:42;11.30;99.90
7002;DHT22;3541;53.230;10.518;2024-02-16T03:17:09;11.30;99.90
7002;DHT22;3541;53.230;10.518;2024-02-16T03:19:35;11.30;99.90
7002;DHT22;3541;53.230;10.518;2024-02-16T03:22:02;11.20;99.90
7002;DHT22;3541;53.230;10.518;2024-02-16T03:24:29;11.30;99.90
7002;DHT22;3541;53.230;10.518;2024-02-16T03:26:55;11.20;99.90
7002;DHT22;3541;53.230;10.518;2024-02-16T03:29:22;11.20;99.90
7002;DHT22;3541;53.230;10.518;2024-02-16T03:31:50;11.20;99.90
7002;DHT22;3541;53.230;10.518;2024-02-16T03:34:16;11.20;99.90
7002;DHT22;3541;53.230;10.518;2024-02-16T03:36:43;11.20;99.90
7002;DHT22;3541;53.230;10.518;2024-02-16T03:39:10;11.20;99.90
7002;DHT22;3541;53.230;10.518;2024-02-16T03:41:36;11.20;99.90
7002;DHT22;3541;53.230;10.518;2024-02-16T03:44:03;11.20;99.90
7002;DHT22;3541;53.230;10.518;2024-02-16T03:46:30;11.20;99.90
7002;DHT22;3541;53.230;10.518;2024-02-16T03:48:58;11.20;99.90
7002;DHT22;3541;53.230;10.518;2024-02-16T03:51:24;11.20;99.90
7002;DHT22;3541;53.230;10.518;2024-02-16T03:53:51;11.20;99.90
7002;DHT22;3541;53.230;10.518;2024-02-16T03:56:20;11.20;99.90
7002;DHT22;3541;53.230;10.518;2024-02-16T03:58:47;11.20;99.90
7002;DHT22;3541;53.230;10.518;2024-02-16T04:01:14;11.20;99.90
7002;DHT22;3541;53.230;10.518;2024-02-16T04:03:40;11.10;99.90
7002;DHT22;3541;53.230;10.518;2024-02-16T04:06:08;11.10;99.90
7002;DHT22;3541;53.230;10.518;2024-02-16T04:08:35;11.10;99.90
7002;DHT22;3541;53.230;10.518;2024-02-16T04:11:02;11.10;99.90
7002;DHT22;3541;53.230;10.518;2024-02-16T04:13:29;11.10;99.90
7002;DHT22;3541;53.230;10.518;2024-02-16T04:15:55;11.00;99.90
7002;DHT22;3541;53.230;10.518;2024-02-16T04:18:22;11.10;99.90
7002;DHT22;3541;53.230;10.518;2024-02-16T04:20:48;11.10;99.90
7002;DHT22;3541;53.230;10.518;2024-02-16T04:23:16;11.00;99.90
7002;DHT22;3541;53.230;10.518;2024-02-16T04:25:43;11.10;99.90
7002;DHT22;3541;53.230;10.518;2024-02-16T04:28:09;11.00;99.90
7002;DHT22;3541;53.230;10.518;2024-02-16T04:30:36;11.00;99.90
7002;DHT22;3541;53.230;10.518;2024-02-16T04:33:03;11.00;99.90
7002;DHT22;3541;53.230;10.518;2024-02-16T04:35:30;11.00;99.90
7002;DHT22;3541;53.230;10.518;2024-02-16T04:37:56;11.00;99.90
7002;DHT22;3541;53.230;10.518;2024-02-16T04:40:24;11.00;99.90
7002;DHT22;3541;53.230;10.518;2024-02-16T04:42:51;11.00;99.90
7002;DHT22;3541;53.230;10.518;2024-02-16T04:45:17;11.00;99.90
7002;DHT22;3541;53.230;10.518;2024-02-16T04:47:44;11.00;99.90
7002;DHT22;3541;53.230;10.518;2024-02-16T04:50:10;11.00;99.90
7002;DHT22;3541;53.230;10.518;2024-02-16T04:52:37;11.00;99.90
7002;DHT22;3541;53.230;10.518;2024-02-16T04:55:06;11.00;99.90
7002;DHT22;3541;53.230;10.518;2024-02-16T04:57:34;11.00;99.90
7002;DHT22;3541;53.230;10.518;2024-02-16T05:00:02;11.00;99.90
7002;DHT22;3541;53.230;10.518;2024-02-16T05:02:28;11.00;99.90
7002;DHT22;3541;53.230;10.518;2024-02-16T05:04:55;11.00;99.90
7002;DHT22;3541;53.230;10.518;2024-02-16T05:07:21;11.00;99.90
7002;DHT22;3541;53.230;10.518;2024-02-16T05:09:48;11.00;99.90
7002;DHT22;3541;53.230;10.518;2024-02-16T05:12:20;11.00;99.90
7002;DHT22;3541;53.230;10.518;2024-02-16T05:14:49;11.00;99.90
7002;DHT22;3541;53.230;10.518;2024-02-16T05:17:14;11.00;99.90
7002;DHT22;3541;53.230;10.518;2024-02-16T05:19:41;11.00;99.90
7002;DHT22;3541;53.230;10.518;2024-02-16T05:22:08;11.00;99.90
7002;DHT22;3541;53.230;10.518;2024-02-16T05:24:35;11.00;99.90
7002;DHT22;3541;53.230;10.518;2024-02-16T05:27:01;11.00;99.90
7002;DHT22;3541;53.230;10.518;2024-02-16T05:29:28;11.00;99.90
7002;DHT22;3541;53.230;10.518;2024-02-16T05:31:56;11.00;99.90
7002;DHT22;3541;53.230;10.518;2024-02-16T05:34:22;11.00;99.90
7002;DHT22;3541;53.230;10.518;2024-02-16T05:36:50;11.00;99.90
7002;DHT22;3541;53.230;10.518;2024-02-16T05:39:16;11.00;99.90
7002;DHT22;3541;53.230;10.518;2024-02-16T05:41:52;11.00;99.90
7002;DHT22;3541;53.230;10.518;2024-02-16T05:44:18;11.00;99.90
7002;DHT22;3541;53.230;10.518;2024-02-16T05:46:45;11.00;99.90
7002;DHT22;3541;53.230;10.518;2024-02-16T05:49:13;11.00;99.90
7002;DHT22;3541;53.230;10.518;2024-02-16T05:51:40;11.00;99.90
7002;DHT22;3541;53.230;10.518;2024-02-16T05:54:07;11.00;99.90
7002;DHT22;3541;53.230;10.518;2024-02-16T05:56:34;11.00;99.90
7002;DHT22;3541;53.230;10.518;2024-02-16T05:59:02;11.00;99.90
7002;DHT22;3541;53.230;10.518;2024-02-16T06:01:29;11.00;99.90
7002;DHT22;3541;53.230;10.518;2024-02-16T06:03:56;11.00;99.90
7002;DHT22;3541;53.230;10.518;2024-02-16T06:06:23;11.00;99.90
7002;DHT22;3541;53.230;10.518;2024-02-16T06:08:50;11.00;99.90
7002;DHT22;3541;53.230;10.518;2024-02-16T06:11:16;11.00;99.90
7002;DHT22;3541;53.230;10.518;2024-02-16T06:13:43;11.00;99.90
7002;DHT22;3541;53.230;10.518;2024-02-16T06:16:10;10.90;99.90
7002;DHT22;3541;53.230;10.518;2024-02-16T06:18:36;10.90;99.90
7002;DHT22;3541;53.230;10.518;2024-02-16T06:21:03;11.00;99.90
7002;DHT22;3541;53.230;10.518;2024-02-16T06:23:31;11.00;99.90
7002;DHT22;3541;53.230;10.518;2024-02-16T06:25:58;11.00;99.90
7002;DHT22;3541;53.230;10.518;2024-02-16T06:28:24;11.00;99.90
7002;DHT22;3541;53.230;10.518;2024-02-16T06:30:51;11.00;99.90
7002;DHT22;3541;53.230;10.518;2024-02-16T06:33:17;11.00;99.90
7002;DHT22;3541;53.230;10.518;2024-02-16T06:35:45;11.00;99.90
7002;DHT22;3541;53.230;10.518;2024-02-16T06:38:13;11.00;99.90
7002;DHT22;3541;53.230;10.518;2024-02-16T06:40:41;10.90;99.90
7002;DHT22;3541;53.230;10.518;2024-02-16T06:43:08;10.90;99.90
7002;DHT22;3541;53.230;10.518;2024-02-16T06:45:35;10.90;99.90
7002;DHT22;3541;53.230;10.518;2024-02-16T06:48:02;10.90;99.90
7002;DHT22;3541;53.230;10.518;2024-02-16T06:50:28;10.90;99.90
7002;DHT22;3541;53.230;10.518;2024-02-16T06:52:55;10.90;99.90
7002;DHT22;3541;53.230;10.518;2024-02-16T06:55:21;10.90;99.90
7002;DHT22;3541;53.230;10.518;2024-02-16T06:57:49;10.90;99.90
7002;DHT22;3541;53.230;10.518;2024-02-16T07:00:17;10.90;99.90
7002;DHT22;3541;53.230;10.518;2024-02-16T07:02:45;10.90;99.90
7002;DHT22;3541;53.230;10.518;2024-02-16T07:05:12;10.90;99.90
7002;DHT22;3541;53.230;10.518;2024-02-16T07:07:39;10.90;99.90
7002;DHT22;3541;53.230;10.518;2024-02-16T07:10:07;10.90;99.90
7002;DHT22;3541;53.230;10.518;2024-02-16T07:12:38;10.90;99.90
7002;DHT22;3541;53.230;10.518;2024-02-16T07:15:07;10.90;99.90
7002;DHT22;3541;53.230;10.518;2024-02-16T07:17:35;11.00;99.90
7002;DHT22;3541;53.230;10.518;2024-02-16T07:20:02;11.00;99.90
7002;DHT22;3541;53.230;10.518;2024-02-16T07:22:30;11.00;99.90
7002;DHT22;3541;53.230;10.518;2024-02-16T07:24:56;11.00;99.90
7002;DHT22;3541;53.230;10.518;2024-02-16T07:27:24;11.00;99.90
7002;DHT22;3541;53.230;10.518;2024-02-16T07:29:50;11.00;99.90
7002;DHT22;3541;53.230;10.518;2024-02-16T07:32:18;11.00;99.90
7002;DHT22;3541;53.230;10.518;2024-02-16T07:34:45;11.00;99.90
7002;DHT22;3541;53.230;10.518;2024-02-16T07:37:13;11.00;99.90
7002;DHT22;3541;53.230;10.518;2024-02-16T07:39:40;11.00;99.90
7002;DHT22;3541;53.230;10.518;2024-02-16T07:42:07;10.90;99.90
7002;DHT22;3541;53.230;10.518;2024-02-16T07:44:34;10.90;99.90
7002;DHT22;3541;53.230;10.518;2024-02-16T07:47:01;10.90;99.90
7002;DHT22;3541;53.230;10.518;2024-02-16T07:49:29;11.00;99.90
7002;DHT22;3541;53.230;10.518;2024-02-16T07:51:56;10.90;99.90
7002;DHT22;3541;53.230;10.518;2024-02-16T07:54:23;11.00;99.90
7002;DHT22;3541;53.230;10.518;2024-02-16T07:56:49;11.00;99.90
7002;DHT22;3541;53.230;10.518;2024-02-16T07:59:16;11.00;99.90
7002;DHT22;3541;53.230;10.518;2024-02-16T08:01:44;11.00;99.90
7002;DHT22;3541;53.230;10.518;2024-02-16T08:04:10;11.00;99.90
7002;DHT22;3541;53.230;10.518;2024-02-16T08:06:38;11.10;99.90
7002;DHT22;3541;53.230;10.518;2024-02-16T08:09:05;11.10;99.90
7002;DHT22;3541;53.230;10.518;2024-02-16T08:11:32;11.10;99.90
7002;DHT22;3541;53.230;10.518;2024-02-16T08:13:58;11.20;99.90
7002;DHT22;3541;53.230;10.518;2024-02-16T08:16:26;11.20;99.90
7002;DHT22;3541;53.230;10.518;2024-02-16T08:18:52;11.20;99.90
7002;DHT22;3541;53.230;10.518;2024-02-16T08:21:19;11.20;99.90
7002;DHT22;3541;53.230;10.518;2024-02-16T08:23:47;11.20;99.90
7002;DHT22;3541;53.230;10.518;2024-02-16T08:26:14;11.20;99.90
7002;DHT22;3541;53.230;10.518;2024-02-16T08:28:43;11.20;99.90
7002;DHT22;3541;53.230;10.518;2024-02-16T08:31:10;11.30;99.90
7002;DHT22;3541;53.230;10.518;2024-02-16T08:33:36;11.30;99.90
7002;DHT22;3541;53.230;10.518;2024-02-16T08:36:06;11.40;99.90
7002;DHT22;3541;53.230;10.518;2024-02-16T08:38:33;11.30;99.90
7002;DHT22;3541;53.230;10.518;2024-02-16T08:41:02;11.40;99.90
7002;DHT22;3541;53.230;10.518;2024-02-16T08:43:28;11.40;99.90
7002;DHT22;3541;53.230;10.518;2024-02-16T08:45:55;11.50;99.90
7002;DHT22;3541;53.230;10.518;2024-02-16T08:48:21;11.50;99.90
7002;DHT22;3541;53.230;10.518;2024-02-16T08:50:48;11.60;99.90
7002;DHT22;3541;53.230;10.518;2024-02-16T08:53:15;11.60;99.90
7002;DHT22;3541;53.230;10.518;2024-02-16T08:55:42;11.70;99.90
7002;DHT22;3541;53.230;10.518;2024-02-16T08:58:10;11.70;99.90
7002;DHT22;3541;53.230;10.518;2024-02-16T09:00:38;11.70;99.90
7002;DHT22;3541;53.230;10.518;2024-02-16T09:03:04;11.70;99.90
7002;DHT22;3541;53.230;10.518;2024-02-16T09:05:32;11.80;99.90
7002;DHT22;3541;53.230;10.518;2024-02-16T09:07:58;11.80;99.90
7002;DHT22;3541;53.230;10.518;2024-02-16T09:10:25;11.90;99.90
7002;DHT22;3541;53.230;10.518;2024-02-16T09:12:52;12.00;99.90
7002;DHT22;3541;53.230;10.518;2024-02-16T09:15:19;12.00;99.90
7002;DHT22;3541;53.230;10.518;2024-02-16T09:17:46;12.00;99.90
7002;DHT22;3541;53.230;10.518;2024-02-16T09:20:13;12.10;99.90
7002;DHT22;3541;53.230;10.518;2024-02-16T09:22:40;12.10;99.90
7002;DHT22;3541;53.230;10.518;2024-02-16T09:25:07;12.10;99.90
7002;DHT22;3541;53.230;10.518;2024-02-16T09:27:34;12.10;99.90
7002;DHT22;3541;53.230;10.518;2024-02-16T09:30:05;12.20;99.90
7002;DHT22;3541;53.230;10.518;2024-02-16T09:32:33;12.20;99.90
7002;DHT22;3541;53.230;10.518;2024-02-16T09:35:00;12.20;99.90
7002;DHT22;3541;53.230;10.518;2024-02-16T09:37:26;12.30;99.90
7002;DHT22;3541;53.230;10.518;2024-02-16T09:39:53;12.30;99.90
7002;DHT22;3541;53.230;10.518;2024-02-16T09:42:21;12.40;99.90
7002;DHT22;3541;53.230;10.518;2024-02-16T09:44:48;12.40;99.90
7002;DHT22;3541;53.230;10.518;2024-02-16T09:47:14;12.50;99.90
7002;DHT22;3541;53.230;10.518;2024-02-16T09:49:47;12.50;99.90
7002;DHT22;3541;53.230;10.518;2024-02-16T09:52:14;12.50;99.90
7002;DHT22;3541;53.230;10.518;2024-02-16T09:54:40;12.50;99.90
7002;DHT22;3541;53.230;10.518;2024-02-16T09:57:07;12.50;99.90
7002;DHT22;3541;53.230;10.518;2024-02-16T09:59:34;12.60;99.90
7002;DHT22;3541;53.230;10.518;2024-02-16T10:02:01;12.60;99.90
7002;DHT22;3541;53.230;10.518;2024-02-16T10:04:27;12.70;99.90
7002;DHT22;3541;53.230;10.518;2024-02-16T10:06:55;12.70;99.90
7002;DHT22;3541;53.230;10.518;2024-02-16T10:09:23;12.70;99.90
7002;DHT22;3541;53.230;10.518;2024-02-16T10:11:50;12.70;99.90
7002;DHT22;3541;53.230;10.518;2024-02-16T10:14:17;12.70;99.90
7002;DHT22;3541;53.230;10.518;2024-02-16T10:16:45;12.80;99.90
7002;DHT22;3541;53.230;10.518;2024-02-16T10:19:12;12.80;99.90
7002;DHT22;3541;53.230;10.518;2024-02-16T10:21:40;12.90;99.90
7002;DHT22;3541;53.230;10.518;2024-02-16T10:24:09;12.90;99.90
7002;DHT22;3541;53.230;10.518;2024-02-16T10:26:36;12.90;99.90
7002;DHT22;3541;53.230;10.518;2024-02-16T10:29:04;12.90;99.90
7002;DHT22;3541;53.230;10.518;2024-02-16T10:31:32;12.90;99.90
7002;DHT22;3541;53.230;10.518;2024-02-16T10:34:01;12.90;99.90
7002;DHT22;3541;53.230;10.518;2024-02-16T10:36:32;12.90;99.90
7002;DHT22;3541;53.230;10.518;2024-02-16T10:39:00;12.90;99.90
7002;DHT22;3541;53.230;10.518;2024-02-16T10:41:33;13.00;99.90
7002;DHT22;3541;53.230;10.518;2024-02-16T10:44:01;13.10;99.90
7002;DHT22;3541;53.230;10.518;2024-02-16T10:46:28;13.10;99.90
7002;DHT22;3541;53.230;10.518;2024-02-16T10:48:55;13.20;99.90
7002;DHT22;3541;53.230;10.518;2024-02-16T10:51:24;13.30;99.90
7002;DHT22;3541;53.230;10.518;2024-02-16T10:53:52;13.50;99.90
7002;DHT22;3541;53.230;10.518;2024-02-16T10:56:27;13.60;99.90
7002;DHT22;3541;53.230;10.518;2024-02-16T10:58:56;13.60;99.90
7002;DHT22;3541;53.230;10.518;2024-02-16T11:01:26;13.60;99.90
7002;DHT22;3541;53.230;10.518;2024-02-16T11:04:00;13.70;99.90
7002;DHT22;3541;53.230;10.518;2024-02-16T11:06:27;13.70;99.90
7002;DHT22;3541;53.230;10.518;2024-02-16T11:08:54;13.80;99.90
7002;DHT22;3541;53.230;10.518;2024-02-16T11:11:23;13.70;99.90
7002;DHT22;3541;53.230;10.518;2024-02-16T11:13:55;13.70;99.90
7002;DHT22;3541;53.230;10.518;2024-02-16T11:16:22;13.80;99.90
7002;DHT22;3541;53.230;10.518;2024-02-16T11:18:51;13.80;99.90
7002;DHT22;3541;53.230;10.518;2024-02-16T11:21:17;13.70;99.90
7002;DHT22;3541;53.230;10.518;2024-02-16T11:23:44;13.80;99.90
7002;DHT22;3541;53.230;10.518;2024-02-16T11:26:12;13.80;99.90
7002;DHT22;3541;53.230;10.518;2024-02-16T11:28:41;13.80;99.90
7002;DHT22;3541;53.230;10.518;2024-02-16T11:31:09;13.80;99.90
7002;DHT22;3541;53.230;10.518;2024-02-16T11:33:36;13.80;99.90
7002;DHT22;3541;53.230;10.518;2024-02-16T11:36:09;13.80;99.90
7002;DHT22;3541;53.230;10.518;2024-02-16T11:38:37;13.80;99.90
7002;DHT22;3541;53.230;10.518;2024-02-16T11:41:05;13.90;99.90
7002;DHT22;3541;53.230;10.518;2024-02-16T11:43:33;13.90;99.90
7002;DHT22;3541;53.230;10.518;2024-02-16T11:46:10;13.90;99.90
7002;DHT22;3541;53.230;10.518;2024-02-16T11:48:38;14.00;99.90
7002;DHT22;3541;53.230;10.518;2024-02-16T11:51:04;14.10;99.90
7002;DHT22;3541;53.230;10.518;2024-02-16T11:53:32;14.20;99.90
7002;DHT22;3541;53.230;10.518;2024-02-16T11:55:59;14.30;99.90
7002;DHT22;3541;53.230;10.518;2024-02-16T11:58:26;14.30;99.90
7002;DHT22;3541;53.230;10.518;2024-02-16T12:00:52;14.40;99.90
7002;DHT22;3541;53.230;10.518;2024-02-16T12:03:19;14.40;99.90
7002;DHT22;3541;53.230;10.518;2024-02-16T12:05:51;14.40;99.90
7002;DHT22;3541;53.230;10.518;2024-02-16T12:08:18;14.50;99.90
7002;DHT22;3541;53.230;10.518;2024-02-16T12:10:46;14.50;99.90
7002;DHT22;3541;53.230;10.518;2024-02-16T12:13:15;14.50;99.90
7002;DHT22;3541;53.230;10.518;2024-02-16T12:15:43;14.60;99.90
7002;DHT22;3541;53.230;10.518;2024-02-16T12:18:10;14.60;99.90
7002;DHT22;3541;53.230;10.518;2024-02-16T12:20:37;14.60;99.90
7002;DHT22;3541;53.230;10.518;2024-02-16T12:23:14;14.60;99.90
7002;DHT22;3541;53.230;10.518;2024-02-16T12:25:40;14.60;99.90
7002;DHT22;3541;53.230;10.518;2024-02-16T12:28:07;14.60;99.90
7002;DHT22;3541;53.230;10.518;2024-02-16T12:30:34;14.70;99.90
7002;DHT22;3541;53.230;10.518;2024-02-16T12:33:02;14.70;99.90
7002;DHT22;3541;53.230;10.518;2024-02-16T12:35:29;14.70;99.90
7002;DHT22;3541;53.230;10.518;2024-02-16T12:37:56;14.70;99.90
7002;DHT22;3541;53.230;10.518;2024-02-16T12:40:24;14.70;99.90
7002;DHT22;3541;53.230;10.518;2024-02-16T12:42:50;14.70;99.90
7002;DHT22;3541;53.230;10.518;2024-02-16T12:45:17;14.60;99.90
7002;DHT22;3541;53.230;10.518;2024-02-16T12:47:43;14.70;99.90
7002;DHT22;3541;53.230;10.518;2024-02-16T12:50:11;14.70;99.90
7002;DHT22;3541;53.230;10.518;2024-02-16T12:52:37;14.70;99.90
7002;DHT22;3541;53.230;10.518;2024-02-16T12:55:05;14.70;99.90
7002;DHT22;3541;53.230;10.518;2024-02-16T12:57:33;14.60;99.90
7002;DHT22;3541;53.230;10.518;2024-02-16T13:00:00;14.70;99.90
7002;DHT22;3541;53.230;10.518;2024-02-16T13:02:28;14.60;99.90
7002;DHT22;3541;53.230;10.518;2024-02-16T13:04:54;14.60;99.90
7002;DHT22;3541;53.230;10.518;2024-02-16T13:07:21;14.60;99.90
7002;DHT22;3541;53.230;10.518;2024-02-16T13:09:48;14.60;99.90
7002;DHT22;3541;53.230;10.518;2024-02-16T13:12:16;14.70;99.90
7002;DHT22;3541;53.230;10.518;2024-02-16T13:14:44;14.70;99.90
7002;DHT22;3541;53.230;10.518;2024-02-16T13:17:10;14.70;99.90
7002;DHT22;3541;53.230;10.518;2024-02-16T13:19:37;14.80;99.90
7002;DHT22;3541;53.230;10.518;2024-02-16T13:22:04;14.80;99.90
7002;DHT22;3541;53.230;10.518;2024-02-16T13:24:31;14.80;99.90
7002;DHT22;3541;53.230;10.518;2024-02-16T13:26:59;14.80;99.90
7002;DHT22;3541;53.230;10.518;2024-02-16T13:29:26;14.80;99.90
7002;DHT22;3541;53.230;10.518;2024-02-16T13:31:54;14.80;99.90
7002;DHT22;3541;53.230;10.518;2024-02-16T13:34:20;14.80;99.90
7002;DHT22;3541;53.230;10.518;2024-02-16T13:36:47;14.90;99.90
7002;DHT22;3541;53.230;10.518;2024-02-16T13:39:13;14.90;99.90
7002;DHT22;3541;53.230;10.518;2024-02-16T13:41:41;14.90;99.90
7002;DHT22;3541;53.230;10.518;2024-02-16T13:44:09;14.80;99.90
7002;DHT22;3541;53.230;10.518;2024-02-16T13:46:36;14.80;99.90
7002;DHT22;3541;53.230;10.518;2024-02-16T13:49:04;14.80;99.90
7002;DHT22;3541;53.230;10.518;2024-02-16T13:51:30;14.80;99.90
7002;DHT22;3541;53.230;10.518;2024-02-16T13:53:57;14.80;99.90
7002;DHT22;3541;53.230;10.518;2024-02-16T13:56:23;14.80;99.90
7002;DHT22;3541;53.230;10.518;2024-02-16T13:58:50;14.80;99.90
7002;DHT22;3541;53.230;10.518;2024-02-16T14:01:16;14.70;99.90
7002;DHT22;3541;53.230;10.518;2024-02-16T14:03:43;14.70;99.90
7002;DHT22;3541;53.230;10.518;2024-02-16T14:06:11;14.70;99.90
7002;DHT22;3541;53.230;10.518;2024-02-16T14:08:38;14.70;99.90
7002;DHT22;3541;53.230;10.518;2024-02-16T14:11:04;14.70;99.90
7002;DHT22;3541;53.230;10.518;2024-02-16T14:13:31;14.60;99.90
7002;DHT22;3541;53.230;10.518;2024-02-16T14:15:57;14.60;99.90
7002;DHT22;3541;53.230;10.518;2024-02-16T14:18:24;14.60;99.90
7002;DHT22;3541;53.230;10.518;2024-02-16T14:20:51;14.60;99.90
7002;DHT22;3541;53.230;10.518;2024-02-16T14:23:18;14.60;99.90
7002;DHT22;3541;53.230;10.518;2024-02-16T14:25:45;14.50;99.90
7002;DHT22;3541;53.230;10.518;2024-02-16T14:28:12;14.50;99.90
7002;DHT22;3541;53.230;10.518;2024-02-16T14:30:39;14.50;99.90
7002;DHT22;3541;53.230;10.518;2024-02-16T14:33:07;14.50;99.90
7002;DHT22;3541;53.230;10.518;2024-02-16T14:35:34;14.50;99.90
7002;DHT22;3541;53.230;10.518;2024-02-16T14:38:01;14.40;99.90
7002;DHT22;3541;53.230;10.518;2024-02-16T14:40:29;14.50;99.90
7002;DHT22;3541;53.230;10.518;2024-02-16T14:42:56;14.40;99.90
7002;DHT22;3541;53.230;10.518;2024-02-16T14:45:22;14.40;99.90
7002;DHT22;3541;53.230;10.518;2024-02-16T14:47:50;14.40;99.90
7002;DHT22;3541;53.230;10.518;2024-02-16T14:50:17;14.40;99.90
7002;DHT22;3541;53.230;10.518;2024-02-16T14:52:44;14.30;99.90
7002;DHT22;3541;53.230;10.518;2024-02-16T14:55:11;14.30;99.90
7002;DHT22;3541;53.230;10.518;2024-02-16T14:57:40;14.30;99.90
7002;DHT22;3541;53.230;10.518;2024-02-16T15:00:08;14.30;99.90
7002;DHT22;3541;53.230;10.518;2024-02-16T15:02:34;14.30;99.90
7002;DHT22;3541;53.230;10.518;2024-02-16T15:05:02;14.30;99.90
7002;DHT22;3541;53.230;10.518;2024-02-16T15:07:28;14.30;99.90
7002;DHT22;3541;53.230;10.518;2024-02-16T15:09:55;14.20;99.90
7002;DHT22;3541;53.230;10.518;2024-02-16T15:12:22;14.20;99.90
7002;DHT22;3541;53.230;10.518;2024-02-16T15:14:50;14.20;99.90
7002;DHT22;3541;53.230;10.518;2024-02-16T15:17:17;14.10;99.90
7002;DHT22;3541;53.230;10.518;2024-02-16T15:19:44;14.10;99.90
7002;DHT22;3541;53.230;10.518;2024-02-16T15:22:11;14.10;99.90
7002;DHT22;3541;53.230;10.518;2024-02-16T15:24:37;14.10;99.90
7002;DHT22;3541;53.230;10.518;2024-02-16T15:27:04;14.10;99.90
7002;DHT22;3541;53.230;10.518;2024-02-16T15:29:31;14.10;99.90
7002;DHT22;3541;53.230;10.518;2024-02-16T15:31:59;14.00;99.90
7002;DHT22;3541;53.230;10.518;2024-02-16T15:34:26;14.00;99.90
7002;DHT22;3541;53.230;10.518;2024-02-16T15:36:53;13.90;99.90
7002;DHT22;3541;53.230;10.518;2024-02-16T15:39:20;13.90;99.90
7002;DHT22;3541;53.230;10.518;2024-02-16T15:41:48;13.90;99.90
7002;DHT22;3541;53.230;10.518;2024-02-16T15:44:15;13.90;99.90